Latest Weather Observations for Adelaide

IDS60901

Issued at 9:41 pm CST Thursday 30 June 2016 (issued every 10 minutes, with the page automatically refreshed every 10 minutes)

About weather observations | Map of Adelaide area stations | Latest observations for Adelaide area | Other Formats
Station Details ID: 023090 Name: KENT TOWN Lat: -34.92 Lon: 138.62 Height: 48.0 m
Data from the previous 72 hours. | See also: Recent months at Adelaide
Date/Time
CST
Temp
°C
App
Temp
°C
Dew
Point
°C
Rel
Hum
%
Delta-T
°C
Wind Press
QNH
hPa
Press
MSL
hPa
Rain since
9am
mm
Dir  Spd
km/h
Gust
km/h
Spd
kts
Gust
kts
30/09:30pm 10.8 7.6 5.3 69 2.5 SW 11 17 6 9 1020.2 - 2.6
30/09:00pm 11.0 7.8 5.1 67 2.7 WSW 11 19 6 10 1019.9 1020.0 2.6
30/08:30pm 11.2 7.1 4.5 63 3.0 SW 15 24 8 13 1019.6 - 2.6
30/08:00pm 11.5 7.0 4.1 60 3.3 SW 17 28 9 15 1019.2 - 2.6
30/07:30pm 11.3 7.1 3.6 59 3.4 SW 15 26 8 14 1018.9 - 2.6
30/07:00pm 11.6 7.2 2.9 55 3.8 SW 15 32 8 17 1018.3 - 2.6
30/06:30pm 11.5 6.4 3.0 56 3.7 SW 19 30 10 16 1017.7 - 2.6
30/06:00pm 11.4 7.4 4.8 64 3.0 WSW 15 26 8 14 1017.1 1017.2 2.6
30/05:30pm 10.2 7.6 6.3 77 1.8 SW 9 15 5 8 1016.6 - 2.6
30/05:00pm 10.6 6.7 7.2 79 1.6 SSW 17 30 9 16 1016.5 - 2.6
30/04:30pm 12.5 7.0 4.1 56 3.8 WSW 22 33 12 18 1015.8 - 2.6
30/04:00pm 12.8 7.4 4.5 57 3.8 WSW 22 43 12 23 1015.6 - 2.6
30/03:30pm 13.2 7.7 4.2 54 4.1 WSW 22 39 12 21 1015.2 - 2.6
30/03:00pm 13.2 7.3 3.9 53 4.2 WSW 24 41 13 22 1014.8 1014.9 2.6
30/02:30pm 13.8 7.4 3.4 49 4.7 WSW 26 37 14 20 1014.3 - 2.6
30/02:00pm 13.8 7.3 4.5 53 4.3 WSW 28 46 15 25 1014.0 - 2.6
30/01:56pm 14.0 7.3 3.9 50 4.6 WSW 28 46 15 25 1014.1 - 2.6
30/01:30pm 13.8 7.6 4.5 53 4.3 WSW 26 43 14 23 1014.0 - 2.6
30/01:00pm 13.4 7.2 6.0 61 3.5 WSW 28 48 15 26 1014.0 - 2.6
30/12:30pm 12.1 8.3 8.9 81 1.6 W 19 30 10 16 1013.8 - 2.6
30/12:00pm 13.4 10.1 9.7 78 1.9 WSW 17 30 9 16 1013.6 1013.6 2.2
30/11:30am 11.7 8.7 10.5 92 0.6 WSW 17 30 9 16 1014.1 - 2.2
30/11:00am 13.1 10.4 10.2 82 1.5 WNW 15 26 8 14 1013.7 - 1.6
30/10:30am 12.9 10.7 10.8 87 1.1 WNW 13 24 7 13 1013.8 - 1.6
30/10:00am 12.4 9.9 10.9 90 0.8 WNW 15 28 8 15 1014.1 - 1.6
30/09:30am 11.6 8.9 10.4 92 0.6 NW 15 22 8 12 1013.4 - 1.4
30/09:00am 12.1 8.9 10.0 87 1.1 NNW 17 30 9 16 1012.9 1012.9 1.6
30/08:30am 10.7 8.0 8.9 89 0.9 NNW 13 24 7 13 1012.9 - 1.6
30/08:00am 10.4 7.2 8.6 89 0.9 N 15 20 8 11 1012.8 - 1.6
30/07:30am 10.2 7.4 8.4 89 0.9 NNW 13 20 7 11 1012.8 - 1.6
30/07:00am 10.0 7.5 8.4 90 0.8 N 11 20 6 11 1012.3 - 1.4
30/06:30am 9.9 6.7 8.5 91 0.7 N 15 24 8 13 1011.9 - 1.2
30/06:00am 10.6 7.5 7.3 80 1.6 N 13 24 7 13 1011.9 1012.0 0.4
30/05:30am 10.4 7.4 7.7 83 1.3 N 13 24 7 13 1012.1 - 0.4
30/05:00am 10.3 6.9 7.8 84 1.2 N 15 28 8 15 1012.1 - 0.4
30/04:30am 10.6 7.1 7.3 80 1.6 N 15 22 8 12 1012.3 - 0.4
30/04:00am 10.6 7.4 7.0 78 1.7 N 13 20 7 11 1012.5 - 0.4
30/03:30am 10.4 7.6 7.0 79 1.6 NNE 11 20 6 11 1012.9 - 0.4
30/03:00am 10.7 7.5 6.7 76 1.9 N 13 19 7 10 1013.2 1013.2 0.4
30/02:30am 10.4 7.1 6.6 77 1.8 NNE 13 24 7 13 1013.3 - 0.2
30/02:00am 11.0 7.2 5.8 70 2.4 N 15 26 8 14 1014.0 - 0.0
30/01:30am 11.3 7.1 5.5 67 2.7 N 17 26 9 14 1014.2 - 0.0
30/01:00am 11.6 7.1 4.3 61 3.3 N 17 30 9 16 1014.1 - 0.0
30/12:30am 11.8 6.9 4.3 60 3.4 N 19 35 10 19 1014.6 - 0.0
30/12:00am 11.8 7.3 4.3 60 3.4 N 17 33 9 18 1015.1 1015.2 0.0
 
Date/Time
CST
Temp
°C
App
Temp
°C
Dew
Point
°C
Rel
Hum
%
Delta-T
°C
Wind Press
QNH
hPa
Press
MSL
hPa
Rain since
9am
mm
Dir  Spd
km/h
Gust
km/h
Spd
kts
Gust
kts
29/11:30pm 11.8 6.7 4.0 59 3.5 N 20 35 11 19 1015.5 - 0.0
29/11:00pm 11.6 6.7 4.0 59 3.4 N 19 32 10 17 1015.6 - 0.0
29/10:30pm 11.3 6.8 4.2 61 3.2 N 17 28 9 15 1015.8 - 0.0
29/10:00pm 11.2 6.7 4.3 62 3.1 N 17 30 9 16 1016.1 - 0.0
29/09:30pm 11.3 6.8 4.2 61 3.2 N 17 32 9 17 1016.3 - 0.0
29/09:00pm 11.4 6.5 4.3 61 3.2 N 19 30 10 16 1016.7 1016.8 0.0
29/08:30pm 11.5 6.7 4.4 61 3.2 N 19 33 10 18 1016.8 - 0.0
29/08:00pm 11.5 7.8 4.4 61 3.2 NNE 13 24 7 13 1017.0 - 0.0
29/07:30pm 11.4 6.9 4.3 61 3.2 N 17 30 9 16 1017.2 - 0.0
29/07:00pm 11.2 7.0 3.8 60 3.3 NNE 15 24 8 13 1017.2 - 0.0
29/06:30pm 11.4 6.7 3.2 57 3.6 N 17 28 9 15 1017.5 - 0.0
29/06:00pm 11.6 7.0 3.5 57 3.6 N 17 28 9 15 1017.8 1017.9 0.0
29/05:30pm 12.0 6.9 3.1 54 3.9 N 19 32 10 17 1017.8 - 0.0
29/05:00pm 12.4 7.1 2.8 52 4.2 N 20 39 11 21 1017.9 - 0.0
29/04:30pm 12.8 6.8 3.4 53 4.2 N 24 43 13 23 1018.2 - 0.0
29/04:00pm 13.2 7.6 3.4 51 4.4 N 22 35 12 19 1018.6 - 0.0
29/03:30pm 12.8 6.4 3.1 51 4.3 N 26 44 14 24 1018.7 - 0.0
29/03:00pm 13.0 7.5 3.9 54 4.1 N 22 39 12 21 1019.1 1019.2 0.0
29/02:30pm 12.8 7.0 4.2 56 3.9 N 24 41 13 22 1019.3 - 0.0
29/02:00pm 12.7 7.6 4.1 56 3.9 N 20 41 11 22 1019.8 - 0.0
29/01:30pm 12.1 7.1 4.4 59 3.5 N 20 39 11 21 1020.4 - 0.0
29/01:00pm 12.0 7.6 5.0 62 3.2 N 17 30 9 16 1021.0 - 0.0
29/12:30pm 11.8 7.8 4.8 62 3.2 N 15 24 8 13 1021.8 - 0.0
29/12:00pm 11.8 7.4 4.8 62 3.2 N 17 28 9 15 1022.4 1022.5 0.0
29/11:30am 11.7 7.7 4.9 63 3.1 N 15 22 8 12 1023.3 - 0.0
29/11:00am 11.7 8.1 4.9 63 3.1 N 13 24 7 13 1023.7 - 0.0
29/10:30am 11.5 7.1 4.9 64 3.0 N 17 26 9 14 1024.3 - 0.0
29/10:00am 11.5 7.1 4.6 62 3.1 N 17 32 9 17 1024.7 - 0.0
29/09:30am 11.3 7.6 4.4 62 3.1 N 13 24 7 13 1024.9 - 0.0
29/09:00am 11.2 7.9 4.3 62 3.1 N 11 17 6 9 1025.0 1025.1 0.0
29/08:30am 11.2 7.5 4.3 62 3.1 N 13 26 7 14 1024.9 - 0.0
29/08:00am 11.0 7.7 4.3 63 3.0 N 11 19 6 10 1025.1 - 0.0
29/07:30am 11.0 7.6 4.0 62 3.1 N 11 24 6 13 1024.9 - 0.0
29/07:00am 10.8 7.8 4.0 63 3.0 NNE 9 17 5 9 1024.8 - 0.0
29/06:30am 10.1 7.5 4.0 66 2.7 NNE 7 13 4 7 1024.7 - 0.0
29/06:00am 9.8 6.8 3.9 66 2.6 NNE 9 15 5 8 1024.8 1024.9 0.0
29/05:30am 8.9 6.4 3.8 70 2.2 NE 6 13 3 7 1024.7 - 0.0
29/05:00am 7.9 5.7 3.4 73 1.9 ENE 4 7 2 4 1024.8 - 0.0
29/04:30am 8.4 6.2 3.5 71 2.1 NE 4 7 2 4 1024.9 - 0.0
29/04:00am 8.9 5.7 3.0 66 2.5 NNE 9 15 5 8 1024.8 - 0.0
29/03:30am 8.8 6.0 3.4 69 2.3 NE 7 15 4 8 1024.9 - 0.0
29/03:00am 8.4 5.9 3.5 71 2.1 NE 6 11 3 6 1025.0 1025.1 0.0
29/02:30am 8.1 5.6 3.9 75 1.8 NE 6 9 3 5 1025.1 - 0.0
29/02:00am 6.7 4.6 4.1 83 1.1 NNE 4 9 2 5 1025.4 - 0.0
29/01:30am 6.2 4.9 4.3 88 0.8 CALM 0 0 0 0 1025.4 - 0.0
29/01:00am 7.0 5.7 4.2 82 1.2 CALM 0 0 0 0 1025.6 - 0.0
29/12:30am 7.2 6.0 4.4 82 1.2 CALM 0 6 0 3 1025.8 - 0.0
29/12:00am 7.2 6.1 4.9 85 1.0 CALM 0 0 0 0 1026.1 1026.2 0.0
 
Date/Time
CST
Temp
°C
App
Temp
°C
Dew
Point
°C
Rel
Hum
%
Delta-T
°C
Wind Press
QNH
hPa
Press
MSL
hPa
Rain since
9am
mm
Dir  Spd
km/h
Gust
km/h
Spd
kts
Gust
kts
28/11:30pm 7.7 6.6 5.2 84 1.1 CALM 0 0 0 0 1026.2 - 0.0
28/11:00pm 8.2 6.8 5.5 83 1.2 NE 2 6 1 3 1026.2 - 0.0
28/10:30pm 8.8 7.1 5.7 81 1.4 ENE 4 7 2 4 1026.3 - 0.0
28/10:00pm 8.4 7.6 6.4 87 0.9 CALM 0 0 0 0 1026.5 - 0.0
28/09:30pm 8.6 7.8 6.6 87 0.9 CALM 0 0 0 0 1026.6 - 0.0
28/09:00pm 8.5 7.8 7.0 90 0.7 CALM 0 6 0 3 1026.5 1026.6 0.0
28/08:30pm 8.9 8.2 7.0 88 0.9 CALM 0 0 0 0 1026.6 - 0.0
28/08:00pm 9.2 8.6 7.5 89 0.8 CALM 0 0 0 0 1026.6 - 0.0
28/07:30pm 9.8 9.3 7.7 87 1.0 CALM 0 0 0 0 1026.5 - 0.0
28/07:00pm 10.8 9.1 7.7 81 1.5 E 6 9 3 5 1026.5 - 0.0
28/06:30pm 11.4 10.9 7.7 78 1.8 CALM 0 0 0 0 1026.4 - 0.0
28/06:00pm 12.4 10.7 7.7 73 2.3 N 6 9 3 5 1026.2 1026.3 0.0
28/05:30pm 13.0 11.3 7.4 69 2.7 N 6 9 3 5 1026.2 - 0.0
28/05:00pm 13.7 11.7 7.1 64 3.2 N 7 15 4 8 1026.1 - 0.0
28/04:30pm 14.6 11.7 6.5 58 3.9 N 11 19 6 10 1026.2 - 0.0
28/04:00pm 15.4 12.7 7.3 58 4.0 NW 11 19 6 10 1026.1 - 0.0
28/03:30pm 15.6 12.6 7.8 59 3.9 NNW 13 20 7 11 1026.1 - 0.0
28/03:00pm 15.6 12.8 6.8 56 4.3 NNW 11 20 6 11 1026.1 1026.2 0.0
28/02:30pm 15.9 12.7 6.9 55 4.4 NW 13 24 7 13 1026.2 - 0.0
28/02:00pm 16.0 13.0 7.6 57 4.2 NW 13 20 7 11 1026.4 - 0.0
28/01:30pm 15.7 12.0 6.2 53 4.6 NW 15 24 8 13 1026.6 - 0.0
28/01:00pm 15.7 11.7 6.7 55 4.4 NNW 17 24 9 13 1026.7 - 0.0
28/12:30pm 15.3 12.3 7.6 60 3.8 NNW 13 20 7 11 1027.0 - 0.0
28/12:00pm 14.7 11.8 8.1 64 3.3 NNW 13 20 7 11 1027.5 1027.6 0.0
28/11:30am 14.3 11.4 8.1 66 3.1 N 13 19 7 10 1027.7 - 0.0
28/11:00am 13.5 11.1 7.1 65 3.1 N 9 13 5 7 1027.9 - 0.0
28/10:30am 13.0 10.6 7.0 67 2.9 N 9 17 5 9 1028.0 - 0.0
28/10:00am 12.1 9.2 6.4 68 2.7 N 11 17 6 9 1027.9 - 0.0
28/09:30am 11.0 8.4 6.3 73 2.2 NNE 9 11 5 6 1027.7 - 0.0
28/09:00am 10.5 8.0 6.4 76 1.9 N 9 13 5 7 1027.4 1027.5 0.0
28/08:30am 10.4 8.2 6.3 76 1.9 NNE 7 13 4 7 1027.1 - 0.0
28/08:00am 10.1 7.5 6.2 77 1.8 NNE 9 13 5 7 1026.9 - 0.0
28/07:30am 10.3 8.3 6.9 79 1.6 NNE 7 13 4 7 1026.6 - 0.0
28/07:00am 10.3 8.6 7.4 82 1.4 NE 6 13 3 7 1026.2 - 0.0
28/06:30am 10.3 8.4 7.6 83 1.3 NNE 7 11 4 6 1025.7 - 0.0
28/06:00am 10.3 8.4 7.6 83 1.3 NNE 7 13 4 7 1025.3 1025.4 0.0
28/05:30am 10.3 8.7 8.0 86 1.1 NNE 6 11 3 6 1025.2 - 0.0
28/05:00am 10.2 8.4 7.9 86 1.1 NNE 7 15 4 8 1025.1 - 0.0
28/04:30am 10.3 8.4 7.6 83 1.3 NNE 7 11 4 6 1024.9 - 0.0
28/04:00am 10.1 8.4 7.6 84 1.2 NNE 6 11 3 6 1024.8 - 0.0
28/03:30am 10.0 8.0 7.3 83 1.3 NNE 7 11 4 6 1024.9 - 0.0
28/03:00am 9.9 7.9 7.1 83 1.3 NE 7 13 4 7 1024.9 1025.0 0.0
28/02:30am 10.2 8.8 7.2 82 1.4 NE 4 13 2 7 1025.1 - 0.0
28/02:00am 10.1 8.4 7.4 83 1.3 NNE 6 9 3 5 1025.1 - 0.0
28/01:30am 10.1 8.8 7.6 84 1.2 NE 4 7 2 4 1024.9 - 0.0
28/01:00am 9.9 9.0 7.6 85 1.1 NNE 2 7 1 4 1024.8 - 0.0
28/12:30am 9.9 8.3 7.8 87 1.0 NNE 6 11 3 6 1024.8 - 0.0
28/12:00am 9.7 8.4 7.8 88 0.9 NNE 4 7 2 4 1024.8 1024.9 0.0
 
Date/Time
CST
Temp
°C
App
Temp
°C
Dew
Point
°C
Rel
Hum
%
Delta-T
°C
Wind Press
QNH
hPa
Press
MSL
hPa
Rain since
9am
mm
Dir  Spd
km/h
Gust
km/h
Spd
kts
Gust
kts
27/11:30pm 9.5 8.7 8.0 90 0.7 ENE 2 9 1 5 1024.7 - 0.0
27/11:00pm 9.2 8.7 7.9 92 0.6 CALM 0 0 0 0 1024.7 - 0.0
27/10:30pm 9.0 8.4 7.5 90 0.7 CALM 0 0 0 0 1024.6 - 0.0
27/10:00pm 9.3 8.7 7.4 88 0.9 CALM 0 0 0 0 1024.5 - 0.0

Latest Capital City Observations: Canberra | Sydney | Melbourne | Brisbane | Adelaide | Perth | Hobart | Darwin

Other Formats:

Comma delimited format used in spreadsheet applications
http://www.bom.gov.au/fwo/IDS60901/IDS60901.94675.axf

JavaScript Object Notation format (JSON) in row-major order
http://www.bom.gov.au/fwo/IDS60901/IDS60901.94675.json